Time;durP1;ratioP1;P1;durP2;ratioP2;P2;SDS_P1;SDS_P2;PMS_P1;PMS_P2;Temp;Humidity;BMP_temperature;BMP_pressure;BME280_temperature;BME280_humidity;BME280_pressure;Samples;Min_cycle;Max_cycle;Signal;HPM_P1;HPM_P2
2022/01/02 00:44:47;;;;;;;;;;;;;;;;;;;;;
2022/01/02 00:48:30;;;;;;;;;;;;;;;;;;;;;
2022/01/02 00:55:44;;;;;;;10.32;7.63;;;11.90;95.30;;;;;;5878484;24;20086;-82
2022/01/02 01:03:21;;;;;;;13.13;8.55;;;11.90;95.40;;;;;;5906112;24;20036;-80
2022/01/02 01:17:58;;;;;;;13.90;7.93;;;11.90;95.40;;;;;;5834125;24;20027;-83
2022/01/02 01:21:30;;;;;;;13.27;8.40;;;11.90;95.50;;;;;;5800836;24;20065;-83
2022/01/02 01:25:12;;;;;;;13.35;9.32;;;11.90;95.60;;;;;;5913068;24;20072;-82
2022/01/02 02:02:31;;;;;;;14.45;9.38;;;11.80;95.70;;;;;;5864046;23;20013;-81
2022/01/02 02:05:47;;;;;;;;;;;;;;;;;;;;;
2022/01/02 02:17:13;;;;;;;16.85;8.88;;;11.80;95.80;;;;;;5854921;24;20063;-80
2022/01/02 02:20:45;;;;;;;;;;;;;;;;;;;;;
2022/01/02 02:24:24;;;;;;;18.70;9.68;;;11.70;95.80;;;;;;5749879;24;20502;-80
2022/01/02 02:27:36;;;;;;;17.45;9.40;;;11.80;96.20;;;;;;5843486;24;20022;-80
2022/01/02 02:34:49;;;;;;;15.35;8.75;;;11.70;95.90;;;;;;5828728;24;20030;-80
2022/01/02 02:38:07;;;;;;;;;;;;;;;;;;;;;
2022/01/02 02:41:41;;;;;;;14.02;9.45;;;11.80;96.00;;;;;;5844545;24;20056;-81
2022/01/02 03:19:14;;;;;;;;;;;;;;;;;;;;;
2022/01/02 03:22:34;;;;;;;12.18;8.27;;;11.70;96.10;;;;;;5897051;24;20025;-81
2022/01/02 03:41:14;;;;;;;;;;;;;;;;;;;;;
2022/01/02 04:33:30;;;;;;;;;;;;;;;;;;;;;
2022/01/02 04:37:09;;;;;;;13.10;6.53;;;11.80;96.50;;;;;;5882579;24;20035;-81
2022/01/02 04:47:59;;;;;;;15.10;7.03;;;11.80;96.50;;;;;;5740789;24;20016;-81
2022/01/02 04:51:28;;;;;;;;;;;;;;;;;;;;;
2022/01/02 04:55:29;;;;;;;;;;;;;;;;;;;;;
2022/01/02 05:02:56;;;;;;;;;;;;;;;;;;;;;
2022/01/02 05:34:27;;;;;;;14.07;6.68;;;12.00;96.70;;;;;;6290155;22;20349;-80
2022/01/02 05:53:30;;;;;;;;;;;;;;;;;;;;;
2022/01/02 06:12:27;;;;;;;;;;;;;;;;;;;;;
2022/01/02 06:16:44;;;;;;;;;;;;;;;;;;;;;
2022/01/02 06:20:51;;;;;;;10.73;6.07;;;12.20;97.10;;;;;;5896800;24;20037;-82
2022/01/02 06:27:34;;;;;;;;;;;;;;;;;;;;;
2022/01/02 06:34:44;;;;;;;9.93;5.13;;;12.20;97.10;;;;;;5924138;24;20072;-80
2022/01/02 06:45:31;;;;;;;;;;;;;;;;;;;;;
2022/01/02 06:49:11;;;;;;;;;;;;;;;;;;;;;
2022/01/02 06:52:12;;;;;;;15.75;6.10;;;12.20;97.00;;;;;;5842741;24;20013;-82
2022/01/02 06:55:01;;;;;;;11.80;5.97;;;12.20;97.00;;;;;;5871286;24;20472;-81
2022/01/02 07:01:23;;;;;;;10.05;5.72;;;12.20;97.00;;;;;;5913549;23;20152;-81
2022/01/02 07:04:35;;;;;;;11.00;5.72;;;12.20;96.90;;;;;;6158022;22;20055;-82
2022/01/02 07:07:40;;;;;;;11.52;6.07;;;12.20;96.90;;;;;;6257111;22;20012;-81
2022/01/02 07:10:49;;;;;;;;;;;;;;;;;;;;;
2022/01/02 07:14:23;;;;;;;13.80;5.85;;;12.20;96.90;;;;;;6263190;22;20372;-81
2022/01/02 07:24:45;;;;;;;;;;;;;;;;;;;;;
2022/01/02 07:27:42;;;;;;;14.07;5.68;;;12.10;96.80;;;;;;6235871;22;20016;-81
2022/01/02 07:30:13;;;;;;;13.80;5.93;;;12.10;96.70;;;;;;6204791;22;20011;-79
2022/01/02 07:33:25;;;;;;;12.52;6.07;;;12.10;96.70;;;;;;6169044;23;20024;-80
2022/01/02 07:36:09;;;;;;;10.57;6.10;;;12.10;96.70;;;;;;6167407;23;20048;-80
2022/01/02 07:38:54;;;;;;;15.98;6.65;;;12.10;96.60;;;;;;6113368;23;20112;-81
2022/01/02 07:41:25;;;;;;;13.27;6.95;;;12.10;96.60;;;;;;6138809;23;20025;-79
2022/01/02 07:43:58;;;;;;;15.40;6.82;;;12.10;96.60;;;;;;6136070;23;20017;-79
2022/01/02 07:47:01;;;;;;;;;;;12.10;96.60;;;;;;6146606;23;20016;-80
2022/01/02 07:50:10;;;;;;;9.35;6.10;;;12.10;96.40;;;;;;6159552;23;19966;-80
2022/01/02 07:53:00;;;;;;;13.88;6.60;;;12.00;96.50;;;;;;6138300;23;20408;-80
2022/01/02 07:59:12;;;;;;;14.50;7.32;;;12.10;96.50;;;;;;6259793;22;20023;-78
2022/01/02 08:01:48;;;;;;;13.82;6.95;;;12.10;96.50;;;;;;6292239;22;20023;-80
2022/01/02 08:05:10;;;;;;;;;;;;;;;;;;;;;
2022/01/02 08:08:05;;;;;;;;;;;;;;;;;;;;;
2022/01/02 08:14:56;;;;;;;8.55;6.00;;;12.00;96.40;;;;;;6204584;23;20026;-81
2022/01/02 10:38:49;;;;;;;;;;;;;;;;;;;;;
2022/01/02 11:12:12;;;;;;;15.65;8.75;;;12.40;94.50;;;;;;5798560;24;20042;-75
2022/01/02 12:32:02;;;;;;;;;;;;;;;;;;;;;
2022/01/02 13:14:28;;;;;;;9.93;3.92;;;12.90;92.40;;;;;;5702939;25;20013;-85
2022/01/02 13:50:58;;;;;;;11.13;3.85;;;12.90;92.10;;;;;;6249985;22;21188;-86
2022/01/02 13:53:25;;;;;;;15.63;4.18;;;12.80;92.20;;;;;;6214772;22;20455;-85
2022/01/02 13:55:55;;;;;;;11.35;4.90;;;12.80;92.20;;;;;;6234589;22;20057;-84
2022/01/02 13:58:28;;;;;;;18.15;4.57;;;12.80;92.20;;;;;;6205297;22;20019;-81
2022/01/02 14:00:58;;;;;;;21.75;4.65;;;12.80;92.10;;;;;;6243741;22;20015;-84
2022/01/02 14:03:40;;;;;;;14.23;4.57;;;12.80;92.20;;;;;;6232108;22;20090;-85
2022/01/02 14:06:16;;;;;;;18.02;5.20;;;12.70;92.10;;;;;;6233946;22;20011;-82
2022/01/02 14:08:43;;;;;;;15.65;4.95;;;12.70;92.20;;;;;;6205953;22;20618;-83
2022/01/02 14:11:20;;;;;;;17.33;4.88;;;12.60;92.20;;;;;;6230532;22;20445;-83
2022/01/02 14:19:29;;;;;;;18.20;4.63;;;12.60;92.30;;;;;;6285387;22;20098;-86
2022/01/02 14:21:55;;;;;;;16.38;5.10;;;12.50;92.30;;;;;;6239779;22;20020;-90
2022/01/02 14:24:20;;;;;;;19.45;4.95;;;12.50;92.20;;;;;;6240639;22;20023;-92
2022/01/02 14:26:49;;;;;;;17.52;6.22;;;12.50;92.20;;;;;;6213276;22;20023;-87
2022/01/02 14:29:15;;;;;;;16.08;4.90;;;12.40;92.20;;;;;;6239198;22;20046;-85
2022/01/02 14:31:41;;;;;;;15.07;4.68;;;12.40;92.20;;;;;;6213477;22;20376;-90
2022/01/02 14:34:07;;;;;;;15.18;4.32;;;12.30;92.20;;;;;;6239530;22;20615;-91
2022/01/02 14:36:32;;;;;;;16.42;5.57;;;12.30;92.10;;;;;;6240920;22;20050;-80
2022/01/02 14:39:02;;;;;;;13.88;4.82;;;12.30;92.10;;;;;;6238365;22;20015;-83
2022/01/02 14:41:27;;;;;;;18.70;5.85;;;12.20;92.10;;;;;;6238112;22;20015;-85
2022/01/02 14:43:53;;;;;;;13.32;6.55;;;12.20;92.20;;;;;;6215162;22;20154;-82
2022/01/02 14:46:19;;;;;;;16.40;5.00;;;12.20;92.20;;;;;;6238617;22;20015;-86
2022/01/02 14:48:48;;;;;;;12.70;4.90;;;12.20;92.20;;;;;;6215673;22;20011;-87
2022/01/02 14:51:15;;;;;;;15.55;5.47;;;12.10;92.20;;;;;;6265387;22;20015;-89
2022/01/02 14:53:41;;;;;;;14.60;4.40;;;12.10;92.30;;;;;;6239045;22;20353;-86
2022/01/02 14:56:08;;;;;;;14.50;4.13;;;12.10;92.20;;;;;;6241116;22;20015;-87
2022/01/02 14:58:36;;;;;;;12.82;4.35;;;12.00;92.20;;;;;;6266165;22;20371;-88
2022/01/02 15:01:02;;;;;;;12.48;4.38;;;12.10;92.20;;;;;;6216516;22;20061;-88
2022/01/02 15:03:28;;;;;;;18.08;4.55;;;12.00;92.20;;;;;;6215955;22;20023;-88
2022/01/02 15:05:54;;;;;;;12.55;4.45;;;12.00;92.10;;;;;;6211174;22;20019;-80
2022/01/02 15:08:19;;;;;;;12.20;4.30;;;12.00;92.20;;;;;;6209634;22;20456;-80
2022/01/02 15:10:46;;;;;;;14.68;5.72;;;12.00;92.10;;;;;;6241137;22;20114;-90
2022/01/02 15:13:15;;;;;;;10.98;4.55;;;12.00;92.20;;;;;;6216114;22;20046;-89
2022/01/02 15:15:41;;;;;;;13.25;4.28;;;12.00;92.10;;;;;;6266163;22;20117;-85
2022/01/02 15:18:07;;;;;;;14.55;4.22;;;11.90;92.20;;;;;;6215102;22;20022;-88
2022/01/02 15:20:32;;;;;;;12.40;3.90;;;11.90;92.20;;;;;;6214896;22;20042;-86
2022/01/02 15:22:58;;;;;;;10.48;3.30;;;11.80;92.20;;;;;;6265341;22;20440;-83
2022/01/02 15:25:24;;;;;;;11.95;3.92;;;11.80;92.20;;;;;;6239258;22;20068;-91
2022/01/02 15:27:50;;;;;;;15.65;4.38;;;11.80;92.20;;;;;;6240030;22;20012;-83
2022/01/02 15:30:15;;;;;;;14.65;5.30;;;11.70;92.30;;;;;;6263563;22;20094;-90
2022/01/02 15:32:41;;;;;;;14.68;4.50;;;11.70;92.40;;;;;;6239300;22;20117;-86
2022/01/02 15:35:09;;;;;;;11.25;4.90;;;11.60;92.30;;;;;;6214668;22;20019;-83
2022/01/02 15:37:36;;;;;;;13.65;5.45;;;11.60;92.30;;;;;;6291606;22;20073;-85
2022/01/02 15:40:08;;;;;;;12.27;4.60;;;11.60;92.40;;;;;;6216970;22;20042;-87
2022/01/02 15:42:34;;;;;;;15.35;4.63;;;11.50;92.50;;;;;;6242764;22;20058;-89
2022/01/02 15:45:00;;;;;;;10.85;3.97;;;11.50;92.50;;;;;;6241419;22;20015;-90
2022/01/02 15:47:25;;;;;;;13.73;3.80;;;11.50;92.60;;;;;;6267758;22;20019;-90
2022/01/02 15:49:51;;;;;;;10.43;3.38;;;11.50;92.60;;;;;;6239940;22;20043;-85
2022/01/02 15:52:17;;;;;;;11.60;3.17;;;11.50;92.60;;;;;;6209342;22;20058;-87
2022/01/02 15:54:43;;;;;;;11.38;3.03;;;11.40;92.60;;;;;;6209645;22;20024;-88
2022/01/02 15:57:08;;;;;;;10.85;3.13;;;11.40;92.60;;;;;;6242494;22;20023;-82
2022/01/02 15:59:34;;;;;;;11.15;3.15;;;11.40;92.60;;;;;;6219383;22;20026;-86
2022/01/02 16:02:00;;;;;;;10.40;2.88;;;11.40;92.60;;;;;;6250809;22;20018;-92
2022/01/02 16:04:25;;;;;;;14.32;3.67;;;11.40;92.70;;;;;;6242646;22;20039;-87
2022/01/02 16:06:51;;;;;;;10.65;3.05;;;11.40;93.10;;;;;;6209255;22;20016;-91
2022/01/02 16:09:17;;;;;;;8.25;3.30;;;11.40;92.70;;;;;;6259957;22;20449;-90
2022/01/02 16:11:49;;;;;;;11.70;2.83;;;11.40;92.60;;;;;;6259139;22;20468;-89
2022/01/02 16:14:16;;;;;;;11.52;3.50;;;11.40;92.70;;;;;;6232469;22;20417;-90
2022/01/02 16:16:42;;;;;;;14.15;3.38;;;11.30;92.70;;;;;;6208862;22;20077;-88
2022/01/02 16:19:08;;;;;;;8.93;2.95;;;11.40;92.70;;;;;;6232145;22;20019;-88
2022/01/02 16:21:34;;;;;;;9.30;2.67;;;11.30;92.70;;;;;;6256635;22;20015;-87
2022/01/02 16:24:00;;;;;;;10.98;3.40;;;11.30;92.70;;;;;;6254360;22;20027;-86
2022/01/02 16:26:25;;;;;;;12.38;2.60;;;11.30;92.70;;;;;;6227795;22;20019;-86
2022/01/02 16:28:51;;;;;;;9.50;3.05;;;11.30;92.70;;;;;;6202443;22;20015;-84
2022/01/02 16:31:19;;;;;;;11.15;3.03;;;11.30;92.70;;;;;;6203729;22;20063;-84
2022/01/02 16:33:46;;;;;;;12.98;2.90;;;11.30;92.80;;;;;;6230892;22;20019;-85
2022/01/02 16:36:11;;;;;;;12.48;2.90;;;11.30;92.80;;;;;;6232044;22;20384;-89
2022/01/02 16:38:37;;;;;;;8.80;2.30;;;11.20;92.80;;;;;;6232399;22;20045;-86
2022/01/02 16:41:03;;;;;;;9.23;2.67;;;11.30;92.80;;;;;;6257661;22;20011;-88
2022/01/02 16:43:29;;;;;;;8.70;2.47;;;11.20;92.80;;;;;;6257757;22;20087;-87
2022/01/02 16:45:54;;;;;;;12.63;3.08;;;11.20;93.20;;;;;;6257178;22;20290;-87
2022/01/02 16:48:22;;;;;;;14.52;3.60;;;11.20;92.80;;;;;;6232345;22;20015;-85
2022/01/02 16:50:48;;;;;;;10.23;2.85;;;11.20;92.80;;;;;;6227977;22;20016;-83
2022/01/02 16:53:14;;;;;;;8.98;2.53;;;11.10;92.80;;;;;;6237329;22;20102;-84
2022/01/02 16:55:40;;;;;;;7.53;2.72;;;11.10;92.80;;;;;;6210382;22;20022;-83
2022/01/02 16:58:06;;;;;;;6.47;2.10;;;11.10;92.70;;;;;;6233857;22;20051;-84
2022/01/02 17:00:33;;;;;;;8.27;2.20;;;11.10;92.80;;;;;;6234930;22;20026;-84
2022/01/02 17:03:01;;;;;;;10.27;2.78;;;11.10;92.80;;;;;;6286116;22;20045;-84
2022/01/02 17:05:26;;;;;;;8.70;3.55;;;11.10;92.80;;;;;;6212511;22;20019;-88
2022/01/02 17:07:52;;;;;;;7.40;2.15;;;11.10;92.80;;;;;;6235551;22;20134;-83
2022/01/02 17:10:18;;;;;;;15.82;3.35;;;11.10;92.80;;;;;;6235724;22;20042;-87
2022/01/02 17:12:44;;;;;;;10.35;3.10;;;11.10;92.90;;;;;;6238605;22;20337;-88
2022/01/02 17:15:09;;;;;;;11.68;3.33;;;11.00;92.80;;;;;;6237988;22;20015;-85
2022/01/02 17:17:39;;;;;;;9.07;2.95;;;11.00;92.90;;;;;;6234264;22;20046;-77
2022/01/02 17:20:06;;;;;;;14.45;3.15;;;11.10;93.40;;;;;;6230765;22;20090;-80
2022/01/02 17:22:32;;;;;;;11.45;3.53;;;11.70;95.00;;;;;;6231813;22;20015;-82
2022/01/02 17:24:58;;;;;;;10.00;3.20;;;12.20;94.30;;;;;;6236282;22;20512;-84
2022/01/02 17:27:30;;;;;;;10.05;3.17;;;12.20;93.20;;;;;;6235765;22;20011;-79
2022/01/02 17:29:59;;;;;;;9.68;2.40;;;12.10;92.70;;;;;;6233424;22;20016;-82
2022/01/02 17:32:24;;;;;;;11.38;2.88;;;12.10;92.60;;;;;;6206373;22;20022;-79
2022/01/02 17:34:50;;;;;;;12.93;3.58;;;12.00;92.70;;;;;;6231800;22;20336;-82
2022/01/02 17:37:16;;;;;;;9.35;2.97;;;12.00;93.00;;;;;;6210326;22;20078;-90
2022/01/02 17:39:42;;;;;;;12.55;3.72;;;11.90;92.90;;;;;;6211877;22;20022;-88
2022/01/02 17:42:08;;;;;;;8.40;3.35;;;11.90;92.80;;;;;;6260533;22;20090;-84
2022/01/02 17:44:34;;;;;;;14.35;3.70;;;11.80;92.80;;;;;;6212138;22;20019;-87
2022/01/02 17:47:00;;;;;;;13.25;3.95;;;11.80;92.80;;;;;;6235422;22;20378;-84
2022/01/02 17:49:26;;;;;;;11.93;3.67;;;11.70;92.90;;;;;;6210682;22;20098;-84
2022/01/02 17:51:52;;;;;;;15.88;4.45;;;11.60;92.90;;;;;;6235043;22;20112;-87
2022/01/02 17:54:20;;;;;;;11.30;3.78;;;11.60;93.00;;;;;;6210215;22;20023;-82
2022/01/02 17:56:46;;;;;;;17.33;7.55;;;11.60;92.90;;;;;;6234761;22;20102;-82
2022/01/02 17:59:11;;;;;;;13.80;6.78;;;11.60;93.00;;;;;;6260593;22;20015;-82
2022/01/02 18:01:37;;;;;;;15.10;3.97;;;11.50;93.00;;;;;;6206885;22;20034;-81
2022/01/02 18:04:03;;;;;;;12.95;3.92;;;11.50;93.00;;;;;;6257549;22;20102;-83
2022/01/02 18:06:29;;;;;;;14.38;4.57;;;11.40;92.90;;;;;;6232746;22;20022;-78
2022/01/02 18:09:00;;;;;;;12.50;4.13;;;11.40;92.90;;;;;;6204043;22;20011;-76
2022/01/02 18:11:28;;;;;;;14.57;4.00;;;11.60;93.60;;;;;;6237423;22;20026;-80
2022/01/02 18:13:53;;;;;;;9.45;3.50;;;11.70;93.10;;;;;;6212249;22;20019;-83
2022/01/02 18:16:19;;;;;;;10.88;4.10;;;11.60;92.90;;;;;;6288748;22;20016;-87
2022/01/02 18:18:45;;;;;;;14.35;4.22;;;11.50;92.80;;;;;;6213022;22;20043;-83
2022/01/02 18:21:13;;;;;;;10.35;3.78;;;11.50;92.90;;;;;;6237637;22;20049;-83
2022/01/02 18:23:43;;;;;;;11.75;3.90;;;11.50;93.00;;;;;;6237482;22;20026;-84
2022/01/02 18:26:12;;;;;;;12.70;4.25;;;11.40;92.90;;;;;;6236755;22;20012;-86
2022/01/02 18:28:39;;;;;;;12.27;3.60;;;11.40;92.90;;;;;;6235123;22;20046;-85
2022/01/02 18:31:04;;;;;;;17.92;4.05;;;11.30;92.90;;;;;;6261910;22;20020;-81
2022/01/02 18:33:33;;;;;;;15.95;4.57;;;11.30;92.90;;;;;;6237213;22;20433;-85
2022/01/02 18:35:58;;;;;;;13.50;3.83;;;11.30;93.00;;;;;;6239254;22;20094;-77
2022/01/02 18:38:24;;;;;;;16.75;4.32;;;11.30;93.00;;;;;;6238030;22;20158;-87
2022/01/02 18:40:51;;;;;;;11.50;3.67;;;11.30;93.10;;;;;;6237592;22;20015;-84
2022/01/02 18:43:18;;;;;;;16.58;4.50;;;11.20;93.00;;;;;;6236501;22;20019;-84
2022/01/02 18:45:46;;;;;;;13.52;4.43;;;11.20;93.00;;;;;;6238585;22;20052;-82
2022/01/02 18:48:12;;;;;;;13.80;5.03;;;11.20;93.10;;;;;;6261486;22;20035;-81
2022/01/02 18:50:40;;;;;;;12.77;4.07;;;11.20;93.10;;;;;;6315263;22;20019;-82
2022/01/02 18:53:06;;;;;;;18.80;5.00;;;11.20;93.20;;;;;;6261014;22;20023;-83
2022/01/02 18:55:31;;;;;;;14.27;4.53;;;11.10;93.20;;;;;;6261749;22;20039;-82
2022/01/02 18:57:57;;;;;;;15.85;4.63;;;11.10;93.30;;;;;;6287276;22;20152;-83
2022/01/02 19:00:23;;;;;;;15.55;5.18;;;11.10;93.30;;;;;;6312853;22;20306;-82
2022/01/02 19:02:49;;;;;;;15.27;4.78;;;11.10;93.30;;;;;;6261525;22;20011;-82
2022/01/02 19:05:14;;;;;;;18.08;5.18;;;11.10;93.40;;;;;;6234874;22;20015;-82
2022/01/02 19:07:40;;;;;;;12.88;4.22;;;11.10;93.40;;;;;;6260834;22;20016;-82
2022/01/02 19:10:09;;;;;;;14.30;4.60;;;11.00;93.40;;;;;;6236041;22;20021;-82
2022/01/02 19:12:35;;;;;;;20.52;5.00;;;11.10;93.50;;;;;;6261266;22;20023;-83
2022/01/02 19:15:00;;;;;;;14.57;3.72;;;11.00;93.50;;;;;;6235809;22;20058;-82
2022/01/02 19:17:27;;;;;;;17.92;4.85;;;11.00;93.50;;;;;;6235946;22;20015;-83
2022/01/02 19:19:52;;;;;;;14.52;4.43;;;11.00;93.50;;;;;;6263201;22;20019;-82
2022/01/02 19:22:20;;;;;;;15.05;4.15;;;11.00;93.50;;;;;;6236257;22;20015;-77
2022/01/02 19:24:52;;;;;;;12.82;3.50;;;11.00;93.50;;;;;;6207182;22;20372;-78
2022/01/02 19:27:19;;;;;;;16.90;4.65;;;11.20;94.20;;;;;;6237589;22;20041;-81
2022/01/02 19:29:48;;;;;;;16.88;3.50;;;11.20;93.90;;;;;;6260855;22;20314;-80
2022/01/02 19:32:14;;;;;;;13.38;4.00;;;11.20;93.60;;;;;;6235947;22;20066;-81
2022/01/02 19:34:40;;;;;;;15.02;3.90;;;11.30;93.60;;;;;;6260062;22;20026;-84
2022/01/02 19:37:07;;;;;;;16.75;4.38;;;11.30;93.60;;;;;;6261542;22;20023;-82
2022/01/02 19:39:36;;;;;;;15.20;3.53;;;11.20;93.60;;;;;;6260722;22;20011;-82
2022/01/02 19:42:01;;;;;;;15.95;3.83;;;11.20;93.60;;;;;;6236306;22;20019;-83
2022/01/02 19:44:28;;;;;;;12.13;3.35;;;11.20;93.60;;;;;;6285496;22;20030;-82
2022/01/02 19:46:53;;;;;;;14.43;4.20;;;11.20;93.60;;;;;;6236496;22;20011;-80
2022/01/02 19:49:19;;;;;;;12.70;3.45;;;11.20;93.60;;;;;;6312574;22;20336;-80
2022/01/02 19:51:45;;;;;;;17.30;3.97;;;11.20;93.60;;;;;;6233222;22;20066;-81
2022/01/02 19:54:13;;;;;;;13.05;3.60;;;11.20;93.60;;;;;;6313233;22;20062;-81
2022/01/02 19:56:38;;;;;;;12.98;3.55;;;11.20;93.60;;;;;;6210423;22;20455;-80
2022/01/02 19:59:04;;;;;;;14.63;3.97;;;11.20;93.60;;;;;;6230544;22;20035;-81
2022/01/02 20:01:30;;;;;;;15.40;3.90;;;11.20;93.60;;;;;;6232771;22;20054;-84
2022/01/02 20:03:56;;;;;;;13.18;3.55;;;11.10;93.70;;;;;;6287314;22;20019;-87
2022/01/02 20:06:22;;;;;;;17.48;4.30;;;11.10;93.80;;;;;;6261602;22;20019;-83
2022/01/02 20:08:47;;;;;;;11.77;4.18;;;11.10;93.80;;;;;;6262262;22;20015;-85
2022/01/02 20:11:13;;;;;;;15.52;4.20;;;11.10;93.90;;;;;;6238302;22;20026;-83
2022/01/02 20:13:41;;;;;;;16.38;4.40;;;11.10;94.00;;;;;;6286973;22;20023;-86
2022/01/02 20:16:09;;;;;;;16.63;5.13;;;11.10;94.00;;;;;;6236597;22;20011;-86
2022/01/02 20:18:36;;;;;;;19.58;4.45;;;11.10;94.10;;;;;;6210572;22;20072;-87
2022/01/02 20:21:08;;;;;;;18.15;5.55;;;11.10;94.20;;;;;;6235227;22;20074;-83
2022/01/02 20:23:34;;;;;;;15.70;4.15;;;11.10;94.20;;;;;;6261702;22;20059;-84
2022/01/02 20:26:00;;;;;;;20.83;6.07;;;11.00;94.30;;;;;;6234183;22;20460;-85
2022/01/02 20:28:27;;;;;;;13.43;5.15;;;11.00;94.30;;;;;;6236407;22;20030;-84
2022/01/02 20:30:52;;;;;;;18.92;5.38;;;11.00;94.40;;;;;;6261139;22;20012;-87
2022/01/02 20:33:18;;;;;;;12.65;5.40;;;11.00;94.40;;;;;;6235346;22;20019;-83
2022/01/02 20:35:45;;;;;;;13.50;4.07;;;11.00;94.40;;;;;;6235542;22;20015;-84
2022/01/02 20:38:14;;;;;;;11.38;3.42;;;11.00;94.40;;;;;;6236537;22;20043;-84
2022/01/02 20:40:39;;;;;;;13.20;2.90;;;11.00;94.40;;;;;;6260586;22;20510;-87
2022/01/02 20:43:06;;;;;;;12.15;3.00;;;10.90;94.30;;;;;;6237169;22;20023;-85
2022/01/02 20:45:31;;;;;;;9.60;3.17;;;10.90;94.20;;;;;;6209782;22;20386;-85
2022/01/02 20:47:58;;;;;;;8.02;2.85;;;10.90;94.20;;;;;;6235851;22;20023;-87
2022/01/02 20:50:26;;;;;;;8.93;1.90;;;10.80;94.20;;;;;;6210780;22;20019;-85
2022/01/02 20:52:52;;;;;;;6.28;2.17;;;10.80;94.20;;;;;;6234809;22;20123;-82
2022/01/02 20:55:18;;;;;;;6.18;1.80;;;10.80;94.20;;;;;;6256259;22;20492;-82
2022/01/02 20:57:44;;;;;;;5.72;1.20;;;10.80;94.20;;;;;;6285233;22;20041;-83
2022/01/02 21:00:14;;;;;;;6.75;1.90;;;10.70;94.20;;;;;;6210480;22;20019;-81
2022/01/02 21:02:42;;;;;;;5.85;1.85;;;10.70;94.30;;;;;;6233929;22;20057;-83
2022/01/02 21:05:08;;;;;;;5.50;2.30;;;10.70;94.30;;;;;;6233815;22;20098;-83
2022/01/02 21:07:37;;;;;;;9.57;2.10;;;10.70;94.40;;;;;;6232904;22;20318;-81
2022/01/02 21:10:07;;;;;;;5.88;1.73;;;10.70;94.40;;;;;;6235606;22;20015;-80
2022/01/02 21:12:32;;;;;;;7.28;1.80;;;10.60;94.50;;;;;;6259771;22;20437;-83
2022/01/02 21:14:58;;;;;;;7.15;2.10;;;10.60;94.50;;;;;;6260052;22;20007;-84
2022/01/02 21:17:25;;;;;;;4.70;1.60;;;10.60;94.60;;;;;;6209048;22;20022;-81
2022/01/02 21:19:51;;;;;;;4.95;1.63;;;10.60;94.60;;;;;;6259149;22;20086;-87
2022/01/02 21:22:17;;;;;;;4.72;1.42;;;10.60;94.70;;;;;;6235302;22;20027;-85
2022/01/02 21:24:43;;;;;;;7.20;1.50;;;10.60;95.10;;;;;;6208340;22;20038;-82
2022/01/02 21:27:09;;;;;;;6.15;1.70;;;10.60;94.80;;;;;;6234557;22;20016;-88
2022/01/02 21:29:34;;;;;;;4.95;1.73;;;10.60;94.80;;;;;;6286490;22;20015;-81
2022/01/02 21:32:03;;;;;;;6.68;1.80;;;10.60;94.80;;;;;;6287193;22;20019;-86
2022/01/02 21:34:28;;;;;;;5.88;1.73;;;10.60;94.90;;;;;;6235098;22;20019;-83
2022/01/02 21:36:55;;;;;;;3.83;1.52;;;10.60;94.90;;;;;;6259742;22;20015;-84
2022/01/02 21:39:21;;;;;;;6.47;1.88;;;10.60;94.90;;;;;;6209891;22;20334;-85
2022/01/02 21:41:47;;;;;;;7.00;2.22;;;10.50;95.00;;;;;;6234358;22;20027;-84
2022/01/02 21:44:12;;;;;;;8.63;2.78;;;10.50;95.00;;;;;;6210311;22;20012;-87
2022/01/02 21:46:38;;;;;;;7.53;2.75;;;10.50;95.00;;;;;;6235654;22;20023;-83
2022/01/02 21:49:04;;;;;;;8.85;3.30;;;10.50;95.10;;;;;;6260316;22;20015;-81
2022/01/02 21:51:32;;;;;;;10.18;3.22;;;10.50;95.10;;;;;;6234777;22;20023;-82
2022/01/02 21:54:01;;;;;;;7.38;3.15;;;10.50;95.20;;;;;;6235874;22;20038;-86
2022/01/02 21:56:27;;;;;;;10.80;3.50;;;10.50;95.20;;;;;;6235245;22;20025;-84
2022/01/02 21:58:53;;;;;;;7.97;3.75;;;10.50;95.30;;;;;;6234260;22;20055;-84
2022/01/02 22:01:19;;;;;;;11.10;3.50;;;10.40;95.30;;;;;;6232188;22;20074;-83
2022/01/02 22:03:51;;;;;;;9.38;3.58;;;10.50;95.60;;;;;;6256414;22;20011;-82
2022/01/02 22:06:21;;;;;;;13.73;4.22;;;10.50;95.50;;;;;;6233780;22;20023;-84
2022/01/02 22:08:47;;;;;;;11.65;3.53;;;10.50;95.50;;;;;;6234044;22;20046;-80
2022/01/02 22:11:13;;;;;;;13.77;3.38;;;10.50;95.60;;;;;;6233782;22;20016;-87
2022/01/02 22:13:38;;;;;;;11.25;3.28;;;10.50;95.60;;;;;;6235170;22;20015;-89
2022/01/02 22:16:04;;;;;;;8.50;2.60;;;10.50;95.70;;;;;;6262030;22;20093;-87
2022/01/02 22:18:30;;;;;;;11.55;2.42;;;10.40;95.90;;;;;;6262295;22;20041;-86
2022/01/02 22:20:56;;;;;;;10.73;2.78;;;10.40;95.60;;;;;;6237348;22;20015;-87
2022/01/02 22:23:22;;;;;;;7.70;1.80;;;10.40;95.60;;;;;;6239672;22;20039;-90
2022/01/02 22:25:50;;;;;;;7.47;1.83;;;10.40;95.60;;;;;;6208742;22;20019;-87
2022/01/02 22:28:16;;;;;;;9.13;1.90;;;10.30;95.50;;;;;;6211325;22;20018;-86
2022/01/02 22:30:43;;;;;;;5.53;1.40;;;10.30;95.40;;;;;;6234473;22;20022;-82
2022/01/02 22:33:13;;;;;;;6.50;1.25;;;10.30;95.40;;;;;;6236675;22;20019;-88
2022/01/02 22:35:42;;;;;;;5.05;0.90;;;10.20;95.30;;;;;;6214059;22;20464;-87
2022/01/02 22:38:09;;;;;;;7.63;1.42;;;10.20;95.30;;;;;;6212271;22;20011;-86
2022/01/02 22:40:35;;;;;;;5.75;1.02;;;10.20;95.30;;;;;;6236945;22;20094;-87
2022/01/02 22:43:00;;;;;;;4.90;1.40;;;10.10;95.30;;;;;;6260184;22;20015;-83
2022/01/02 22:45:26;;;;;;;3.28;0.93;;;10.10;95.20;;;;;;6259595;22;20019;-87
2022/01/02 22:47:53;;;;;;;4.47;1.15;;;10.00;95.20;;;;;;6210910;22;20019;-90
2022/01/02 22:50:18;;;;;;;3.50;1.00;;;10.00;95.20;;;;;;6237816;22;20050;-91
2022/01/02 22:52:44;;;;;;;5.13;1.10;;;10.00;95.20;;;;;;6237880;22;20077;-93
2022/01/02 22:55:14;;;;;;;4.88;0.90;;;10.00;95.20;;;;;;6237871;22;20023;-93
2022/01/02 22:57:44;;;;;;;6.20;1.15;;;9.90;95.20;;;;;;6240310;22;20022;-92
2022/01/02 23:00:16;;;;;;;3.85;0.90;;;9.90;95.20;;;;;;6239829;22;20023;-90
2022/01/02 23:02:42;;;;;;;3.42;0.85;;;9.90;95.10;;;;;;6215142;22;20019;-89
2022/01/02 23:05:07;;;;;;;3.25;0.93;;;9.80;95.40;;;;;;6239423;22;20034;-94
2022/01/02 23:07:33;;;;;;;2.22;0.70;;;9.80;95.10;;;;;;6239363;22;20038;-91
2022/01/02 23:09:59;;;;;;;2.20;0.60;;;9.80;95.10;;;;;;6239883;22;20026;-95
2022/01/02 23:12:25;;;;;;;3.05;0.75;;;9.70;95.10;;;;;;6216005;22;20077;-89
2022/01/02 23:14:51;;;;;;;2.17;0.82;;;9.70;95.10;;;;;;6239867;22;20433;-82
2022/01/02 23:17:19;;;;;;;2.15;0.60;;;9.70;95.20;;;;;;6241226;22;20428;-91
2022/01/02 23:19:49;;;;;;;2.63;0.85;;;9.70;95.20;;;;;;6214114;22;20026;-90
2022/01/02 23:22:19;;;;;;;3.17;1.23;;;9.70;95.30;;;;;;6240771;22;20023;-91
2022/01/02 23:24:48;;;;;;;3.47;1.08;;;9.70;95.30;;;;;;6265136;22;20022;-93
2022/01/02 23:27:17;;;;;;;6.85;1.48;;;9.70;95.40;;;;;;6214116;22;20019;-91
2022/01/02 23:29:43;;;;;;;5.88;1.98;;;9.70;95.40;;;;;;6215532;22;20026;-90
2022/01/02 23:32:10;;;;;;;3.60;1.77;;;9.60;95.40;;;;;;6240011;22;20015;-90
2022/01/02 23:34:37;;;;;;;7.43;2.08;;;9.60;95.50;;;;;;6240064;22;20011;-86
2022/01/02 23:37:03;;;;;;;8.32;2.22;;;9.60;95.50;;;;;;6239083;22;20054;-90
2022/01/02 23:39:29;;;;;;;6.57;2.10;;;9.60;95.50;;;;;;6239540;22;20149;-89
2022/01/02 23:41:55;;;;;;;8.30;2.17;;;9.60;95.50;;;;;;6265377;22;20019;-83
2022/01/02 23:44:21;;;;;;;8.43;2.40;;;9.70;95.60;;;;;;6239568;22;20019;-88
2022/01/02 23:46:54;;;;;;;10.18;2.40;;;9.60;95.60;;;;;;6240659;22;20019;-89
2022/01/02 23:49:23;;;;;;;12.60;3.03;;;9.70;95.70;;;;;;6217329;22;20022;-90
2022/01/02 23:51:49;;;;;;;12.65;2.60;;;9.60;95.60;;;;;;6240515;22;20077;-92
2022/01/02 23:54:15;;;;;;;10.48;3.55;;;9.60;95.60;;;;;;6215381;22;20023;-89
2022/01/02 23:56:41;;;;;;;11.52;2.83;;;9.60;95.60;;;;;;6239133;22;20019;-91
2022/01/02 23:59:08;;;;;;;17.20;3.50;;;9.60;95.60;;;;;;6238505;22;20373;-92
